Dong Fang Chun — BRZL — position and weather

sailwx.info

Track history (hours):
 
Tides and Currents Weather Stations Pressure Air Temp Water Temp Dewpoint Dewpoint Depression Visibility Wind Speed Wind Dir Waves Ship Positions

Dong Fang Chun

Last reported at 2014-Aug-23 03:33 UTC. Time now 2014-Aug-23 19:48 UTC.
Position N 22°29' E 113°55'.

Length 23 m; draft 1.4 m.

Type: High speed craft. MMSI: 412461320.

Date/timePositionNaut miles runAvg speedWind from/ knotsBaromVisibWave heightAir tempDewpointWater temp
2014-Aug-23 03:33N 22°29' E 113°55'5 4.3
2014-Aug-23 02:25N 22°24' E 113°54'5 5.7
2014-Aug-23 01:34N 22°29' E 113°55'0 0.0
2014-Aug-22 11:17N 22°29' E 113°55'1518.9
2014-Aug-22 10:31N 22°19' E 113°43'5 5.4
2014-Aug-22 09:33N 22°16' E 113°38'2019.7
2014-Aug-22 08:33N 22°29' E 113°55'1514.5
2014-Aug-22 07:31N 22°18' E 113°43'4 4.4
2014-Aug-22 06:33N 22°16' E 113°39'1918.9
2014-Aug-22 05:33N 22°29' E 113°55'1919.0
2014-Aug-22 04:33N 22°16' E 113°39'8 7.8
2014-Aug-22 03:33N 22°21' E 113°46'9 9.2
2014-Aug-22 02:33N 22°26' E 113°54'2120.9
2014-Aug-22 01:33N 22°14' E 113°35'1313.4
2014-Aug-22 00:33N 22°21' E 113°48'10 9.8
2014-Aug-21 23:33N 22°29' E 113°55'3 0.3
2014-Aug-21 12:34N 22°26' E 113°54'3 1.5
2014-Aug-21 10:33N 22°29' E 113°55'0 0.0
2014-Aug-21 08:33N 22°29' E 113°55'0 0.0
2014-Aug-21 05:27N 22°29' E 113°55'0 0.0
2014-Aug-21 04:34N 22°29' E 113°55'0 0.0
2014-Aug-21 03:33N 22°29' E 113°55'1715.1
2014-Aug-21 02:24N 22°17' E 113°40'4 4.2
2014-Aug-21 01:33N 22°16' E 113°37'2120.9
2014-Aug-21 00:33N 22°29' E 113°55'0 0.0
2014-Aug-20 14:09N 22°29' E 113°55'3 1.7
2014-Aug-20 12:33N 22°26' E 113°54'3 1.3
2014-Aug-20 10:33N 22°29' E 113°55'0 0.0
2014-Aug-20 08:33N 22°29' E 113°55'0 0.0
2014-Aug-19 13:20N 22°29' E 113°55'1519.7
2014-Aug-19 12:33N 22°18' E 113°42'3 2.8
2014-Aug-19 11:32N 22°20' E 113°45'1111.0
2014-Aug-19 10:33N 22°27' E 113°54'2120.0
2014-Aug-19 09:30N 22°14' E 113°35'0 0.0
2014-Aug-19 08:33N 22°14' E 113°35'2311.5
2014-Aug-19 06:33N 22°29' E 113°55'0 0.2
2014-Aug-19 03:33N 22°28' E 113°55'10 4.2
2014-Aug-19 01:04N 22°21' E 113°47'1020.1
2014-Aug-19 00:33N 22°29' E 113°55'0 0.0
2014-Aug-18 12:33N 22°29' E 113°55'0 0.0
2014-Aug-18 10:33N 22°29' E 113°55'0 0.0
2014-Aug-18 08:33N 22°29' E 113°55'1514.8
2014-Aug-18 07:32N 22°19' E 113°43'1 1.1
2014-Aug-18 06:30N 22°18' E 113°41'1617.0
2014-Aug-18 05:33N 22°29' E 113°55'2019.7
2014-Aug-18 04:33N 22°16' E 113°38'1010.2
2014-Aug-18 03:33N 22°21' E 113°47'4 4.5
2014-Aug-18 02:33N 22°24' E 113°51'1817.6
2014-Aug-18 01:33N 22°14' E 113°35'1312.8
2014-Aug-18 00:33N 22°21' E 113°47'9 0.8
2014-Aug-17 12:34N 22°27' E 113°54'1 0.7
2014-Aug-17 10:33N 22°29' E 113°55'0 0.0
2014-Aug-17 08:33N 22°29' E 113°55'2 2.0
2014-Aug-17 07:33N 22°27' E 113°54'2120.9
2014-Aug-17 06:32N 22°14' E 113°35'1212.2
2014-Aug-17 05:33N 22°21' E 113°46'9 9.4
2014-Aug-17 04:33N 22°27' E 113°54'2118.0
2014-Aug-17 03:23N 22°14' E 113°35'1214.8
2014-Aug-17 02:33N 22°21' E 113°47'1110.8
2014-Aug-17 01:34N 22°29' E 113°55'0 0.0
2014-Aug-16 12:26N 22°29' E 113°55'0 0.0
2014-Aug-16 10:33N 22°29' E 113°55'0 0.0
2014-Aug-16 08:33N 22°29' E 113°55'1615.6
2014-Aug-16 07:33N 22°18' E 113°42'1 0.7
2014-Aug-16 06:32N 22°19' E 113°42'1515.6
2014-Aug-16 05:34N 22°29' E 113°55'2120.6
2014-Aug-16 04:33N 22°15' E 113°38'1110.5
2014-Aug-16 03:33N 22°21' E 113°47'1 1.2
2014-Aug-16 02:18N 22°22' E 113°48'1417.2
2014-Aug-16 01:29N 22°14' E 113°35'1314.1
2014-Aug-16 00:33N 22°21' E 113°47'1010.1
2014-Aug-15 23:33N 22°29' E 113°55'3 0.3
2014-Aug-15 12:34N 22°26' E 113°54'3 1.6
2014-Aug-15 10:33N 22°29' E 113°55'0 0.0
2014-Aug-15 08:33N 22°29' E 113°55'7 6.6
2014-Aug-15 07:32N 22°23' E 113°50'1616.6
2014-Aug-15 06:33N 22°14' E 113°35'1313.3
2014-Aug-15 05:33N 22°22' E 113°47'8 8.1
2014-Aug-15 04:34N 22°27' E 113°54'2120.9
2014-Aug-15 03:33N 22°14' E 113°35'1414.4
2014-Aug-15 02:33N 22°22' E 113°48'9 8.8
2014-Aug-15 01:33N 22°29' E 113°55'0 0.0
2014-Aug-14 14:06N 22°29' E 113°55'2 1.3
2014-Aug-14 12:33N 22°27' E 113°54'2 1.0
2014-Aug-14 10:33N 22°29' E 113°55'0 0.1
2014-Aug-14 08:33N 22°29' E 113°55'0 0.1
2014-Aug-14 07:34N 22°29' E 113°55'0 0.0
2014-Aug-14 06:34N 22°29' E 113°55'1313.2
2014-Aug-14 05:34N 22°20' E 113°44'6 5.6
2014-Aug-14 04:29N 22°17' E 113°39'1920.5
2014-Aug-14 03:33N 22°28' E 113°55'1312.5
2014-Aug-14 02:32N 22°20' E 113°44'7 7.5
2014-Aug-14 01:33N 22°16' E 113°38'2020.2
2014-Aug-14 00:33N 22°29' E 113°55'0 0.0
2014-Aug-13 13:13N 22°29' E 113°55'1319.6
2014-Aug-13 12:32N 22°20' E 113°44'1010.0
2014-Aug-13 11:34N 22°14' E 113°35'1817.6
2014-Aug-13 10:33N 22°24' E 113°51'1 1.0
2014-Aug-13 09:33N 22°24' E 113°52'1817.6
2014-Aug-13 08:32N 22°14' E 113°35'1 1.2
2014-Aug-13 07:33N 22°15' E 113°36'2221.8
2014-Aug-13 06:34N 22°28' E 113°55'1513.9
2014-Aug-13 05:30N 22°19' E 113°43'6 6.1
2014-Aug-13 04:33N 22°16' E 113°37'2120.6
2014-Aug-13 03:34N 22°28' E 113°55'  
Track history (hours):
 
Tides and Currents Weather Stations Pressure Air Temp Water Temp Dewpoint Dewpoint Depression Visibility Wind Speed Wind Dir Waves Ship Positions

Dong Fang Chun

Last reported at 2014-Aug-23 03:33 UTC. Time now 2014-Aug-23 19:48 UTC.
Position N 22°29' E 113°55'.

Length 23 m; draft 1.4 m.

Type: High speed craft. MMSI: 412461320.

Date/timePositionNaut miles runAvg speedWind from/ knotsBaromVisibWave heightAir tempDewpointWater temp
2014-Aug-23 03:33N 22°29' E 113°55'5 4.3
2014-Aug-23 02:25N 22°24' E 113°54'5 5.7
2014-Aug-23 01:34N 22°29' E 113°55'0 0.0
2014-Aug-22 11:17N 22°29' E 113°55'1518.9
2014-Aug-22 10:31N 22°19' E 113°43'5 5.4
2014-Aug-22 09:33N 22°16' E 113°38'2019.7
2014-Aug-22 08:33N 22°29' E 113°55'1514.5
2014-Aug-22 07:31N 22°18' E 113°43'4 4.4
2014-Aug-22 06:33N 22°16' E 113°39'1918.9
2014-Aug-22 05:33N 22°29' E 113°55'1919.0
2014-Aug-22 04:33N 22°16' E 113°39'8 7.8
2014-Aug-22 03:33N 22°21' E 113°46'9 9.2
2014-Aug-22 02:33N 22°26' E 113°54'2120.9
2014-Aug-22 01:33N 22°14' E 113°35'1313.4
2014-Aug-22 00:33N 22°21' E 113°48'10 9.8
2014-Aug-21 23:33N 22°29' E 113°55'3 0.3
2014-Aug-21 12:34N 22°26' E 113°54'3 1.5
2014-Aug-21 10:33N 22°29' E 113°55'0 0.0
2014-Aug-21 08:33N 22°29' E 113°55'0 0.0
2014-Aug-21 05:27N 22°29' E 113°55'0 0.0
2014-Aug-21 04:34N 22°29' E 113°55'0 0.0
2014-Aug-21 03:33N 22°29' E 113°55'1715.1
2014-Aug-21 02:24N 22°17' E 113°40'4 4.2
2014-Aug-21 01:33N 22°16' E 113°37'2120.9
2014-Aug-21 00:33N 22°29' E 113°55'0 0.0
2014-Aug-20 14:09N 22°29' E 113°55'3 1.7
2014-Aug-20 12:33N 22°26' E 113°54'3 1.3
2014-Aug-20 10:33N 22°29' E 113°55'0 0.0
2014-Aug-20 08:33N 22°29' E 113°55'0 0.0
2014-Aug-19 13:20N 22°29' E 113°55'1519.7
2014-Aug-19 12:33N 22°18' E 113°42'3 2.8
2014-Aug-19 11:32N 22°20' E 113°45'1111.0
2014-Aug-19 10:33N 22°27' E 113°54'2120.0
2014-Aug-19 09:30N 22°14' E 113°35'0 0.0
2014-Aug-19 08:33N 22°14' E 113°35'2311.5
2014-Aug-19 06:33N 22°29' E 113°55'0 0.2
2014-Aug-19 03:33N 22°28' E 113°55'10 4.2
2014-Aug-19 01:04N 22°21' E 113°47'1020.1
2014-Aug-19 00:33N 22°29' E 113°55'0 0.0
2014-Aug-18 12:33N 22°29' E 113°55'0 0.0
2014-Aug-18 10:33N 22°29' E 113°55'0 0.0
2014-Aug-18 08:33N 22°29' E 113°55'1514.8
2014-Aug-18 07:32N 22°19' E 113°43'1 1.1
2014-Aug-18 06:30N 22°18' E 113°41'1617.0
2014-Aug-18 05:33N 22°29' E 113°55'2019.7
2014-Aug-18 04:33N 22°16' E 113°38'1010.2
2014-Aug-18 03:33N 22°21' E 113°47'4 4.5
2014-Aug-18 02:33N 22°24' E 113°51'1817.6
2014-Aug-18 01:33N 22°14' E 113°35'1312.8
2014-Aug-18 00:33N 22°21' E 113°47'9 0.8
2014-Aug-17 12:34N 22°27' E 113°54'1 0.7
2014-Aug-17 10:33N 22°29' E 113°55'0 0.0
2014-Aug-17 08:33N 22°29' E 113°55'2 2.0
2014-Aug-17 07:33N 22°27' E 113°54'2120.9
2014-Aug-17 06:32N 22°14' E 113°35'1212.2
2014-Aug-17 05:33N 22°21' E 113°46'9 9.4
2014-Aug-17 04:33N 22°27' E 113°54'2118.0
2014-Aug-17 03:23N 22°14' E 113°35'1214.8
2014-Aug-17 02:33N 22°21' E 113°47'1110.8
2014-Aug-17 01:34N 22°29' E 113°55'0 0.0
2014-Aug-16 12:26N 22°29' E 113°55'0 0.0
2014-Aug-16 10:33N 22°29' E 113°55'0 0.0
2014-Aug-16 08:33N 22°29' E 113°55'1615.6
2014-Aug-16 07:33N 22°18' E 113°42'1 0.7
2014-Aug-16 06:32N 22°19' E 113°42'1515.6
2014-Aug-16 05:34N 22°29' E 113°55'2120.6
2014-Aug-16 04:33N 22°15' E 113°38'1110.5
2014-Aug-16 03:33N 22°21' E 113°47'1 1.2
2014-Aug-16 02:18N 22°22' E 113°48'1417.2
2014-Aug-16 01:29N 22°14' E 113°35'1314.1
2014-Aug-16 00:33N 22°21' E 113°47'1010.1
2014-Aug-15 23:33N 22°29' E 113°55'3 0.3
2014-Aug-15 12:34N 22°26' E 113°54'3 1.6
2014-Aug-15 10:33N 22°29' E 113°55'0 0.0
2014-Aug-15 08:33N 22°29' E 113°55'7 6.6
2014-Aug-15 07:32N 22°23' E 113°50'1616.6
2014-Aug-15 06:33N 22°14' E 113°35'1313.3
2014-Aug-15 05:33N 22°22' E 113°47'8 8.1
2014-Aug-15 04:34N 22°27' E 113°54'2120.9
2014-Aug-15 03:33N 22°14' E 113°35'1414.4
2014-Aug-15 02:33N 22°22' E 113°48'9 8.8
2014-Aug-15 01:33N 22°29' E 113°55'0 0.0
2014-Aug-14 14:06N 22°29' E 113°55'2 1.3
2014-Aug-14 12:33N 22°27' E 113°54'2 1.0
2014-Aug-14 10:33N 22°29' E 113°55'0 0.1
2014-Aug-14 08:33N 22°29' E 113°55'0 0.1
2014-Aug-14 07:34N 22°29' E 113°55'0 0.0
2014-Aug-14 06:34N 22°29' E 113°55'1313.2
2014-Aug-14 05:34N 22°20' E 113°44'6 5.6
2014-Aug-14 04:29N 22°17' E 113°39'1920.5
2014-Aug-14 03:33N 22°28' E 113°55'1312.5
2014-Aug-14 02:32N 22°20' E 113°44'7 7.5
2014-Aug-14 01:33N 22°16' E 113°38'2020.2
2014-Aug-14 00:33N 22°29' E 113°55'0 0.0
2014-Aug-13 13:13N 22°29' E 113°55'1319.6
2014-Aug-13 12:32N 22°20' E 113°44'1010.0
2014-Aug-13 11:34N 22°14' E 113°35'1817.6
2014-Aug-13 10:33N 22°24' E 113°51'1 1.0
2014-Aug-13 09:33N 22°24' E 113°52'1817.6
2014-Aug-13 08:32N 22°14' E 113°35'1 1.2
2014-Aug-13 07:33N 22°15' E 113°36'2221.8
2014-Aug-13 06:34N 22°28' E 113°55'1513.9
2014-Aug-13 05:30N 22°19' E 113°43'6 6.1
2014-Aug-13 04:33N 22°16' E 113°37'2120.6
2014-Aug-13 03:34N 22°28' E 113°55'  

Dump ship's entire track history